createdAt,value
2019-06-15T00:00:29.823Z,7.60
2019-06-15T00:02:55.973Z,10.63
2019-06-15T00:05:21.924Z,8.50
2019-06-15T00:07:47.923Z,9.63
2019-06-15T00:10:14.335Z,12.30
2019-06-15T00:12:40.470Z,11.57
2019-06-15T00:15:06.845Z,9.40
2019-06-15T00:17:32.869Z,11.13
2019-06-15T00:19:58.910Z,11.97
2019-06-15T00:22:25.390Z,13.63
2019-06-15T00:24:51.268Z,13.37
2019-06-15T00:27:17.131Z,13.57
2019-06-15T00:29:43.011Z,15.83
2019-06-15T00:32:09.216Z,17.13
2019-06-15T00:34:35.108Z,18.23
2019-06-15T00:37:00.978Z,19.63
2019-06-15T00:39:26.879Z,18.97
2019-06-15T00:41:52.874Z,25.50
2019-06-15T00:44:18.741Z,19.87
2019-06-15T00:46:44.622Z,19.40
2019-06-15T00:49:11.408Z,19.67
2019-06-15T00:51:38.353Z,21.37
2019-06-15T00:54:04.210Z,20.97
2019-06-15T00:56:30.100Z,20.00
2019-06-15T00:58:55.963Z,22.03
2019-06-15T01:01:22.325Z,23.13
2019-06-15T01:03:48.954Z,21.27
2019-06-15T01:06:14.820Z,22.93
2019-06-15T01:08:41.625Z,22.13
2019-06-15T01:11:08.255Z,22.00
2019-06-15T01:13:34.489Z,23.70
2019-06-15T01:16:00.626Z,22.47
2019-06-15T01:18:27.214Z,23.40
2019-06-15T01:20:53.965Z,24.33
2019-06-15T01:23:20.541Z,24.90
2019-06-15T01:25:47.612Z,23.43
2019-06-15T01:28:14.253Z,23.73
2019-06-15T01:30:40.463Z,23.83
2019-06-15T01:33:06.328Z,23.33
2019-06-15T01:35:32.304Z,23.43
2019-06-15T01:37:58.165Z,25.67
2019-06-15T01:40:24.055Z,24.30
2019-06-15T01:42:49.919Z,23.13
2019-06-15T01:45:19.612Z,24.67
2019-06-15T01:47:45.636Z,26.47
2019-06-15T01:50:11.622Z,24.43
2019-06-15T01:52:37.680Z,24.50
2019-06-15T01:55:17.460Z,27.43
2019-06-15T01:57:32.818Z,27.50
2019-06-15T01:59:58.707Z,26.60
2019-06-15T02:02:24.566Z,27.07
2019-06-15T02:04:50.450Z,26.70
2019-06-15T02:07:16.305Z,29.57
2019-06-15T02:09:42.217Z,26.27
2019-06-15T02:12:08.187Z,28.30
2019-06-15T02:14:34.089Z,27.43
2019-06-15T02:17:00.044Z,24.27
2019-06-15T02:19:25.913Z,25.17
2019-06-15T02:21:51.783Z,24.80
2019-06-15T02:24:17.647Z,25.87
2019-06-15T02:26:43.524Z,26.73
2019-06-15T02:29:09.387Z,24.00
2019-06-15T02:31:35.282Z,22.00
2019-06-15T02:34:01.146Z,24.00
2019-06-15T02:36:27.028Z,22.83
2019-06-15T02:38:52.885Z,22.03
2019-06-15T02:41:18.764Z,22.77
2019-06-15T02:43:44.623Z,22.77
2019-06-15T02:46:10.513Z,23.07
2019-06-15T02:48:36.395Z,22.17
2019-06-15T02:51:02.780Z,21.90
2019-06-15T02:53:28.709Z,21.90
2019-06-15T02:55:54.592Z,22.43
2019-06-15T02:58:20.443Z,19.97
2019-06-15T03:00:59.061Z,19.47
2019-06-15T03:03:24.935Z,19.67
2019-06-15T03:05:50.899Z,18.60
2019-06-15T03:08:16.848Z,18.67
2019-06-15T03:10:42.841Z,17.60
2019-06-15T03:13:08.708Z,17.87
2019-06-15T03:15:34.582Z,16.80
2019-06-15T03:18:00.438Z,17.10
2019-06-15T03:20:26.420Z,17.30
2019-06-15T03:22:52.275Z,16.43
2019-06-15T03:25:18.256Z,15.43
2019-06-15T03:27:44.112Z,16.60
2019-06-15T03:30:10.224Z,16.17
2019-06-15T03:32:36.059Z,15.93
2019-06-15T03:35:04.741Z,15.63
2019-06-15T03:37:30.599Z,15.33
2019-06-15T03:39:56.457Z,16.37
2019-06-15T03:42:22.337Z,16.60
2019-06-15T03:44:48.200Z,17.10
2019-06-15T03:47:14.107Z,16.87
2019-06-15T03:49:39.960Z,16.03
2019-06-15T03:52:05.850Z,17.07
2019-06-15T03:54:31.706Z,17.40
2019-06-15T03:56:57.593Z,16.97
2019-06-15T03:59:23.448Z,18.03
2019-06-15T04:01:49.532Z,15.73
2019-06-15T04:04:15.390Z,17.20
2019-06-15T04:06:41.270Z,16.40
2019-06-15T04:09:07.420Z,15.93
2019-06-15T04:11:33.326Z,16.07
2019-06-15T04:13:59.184Z,15.27
2019-06-15T04:16:25.064Z,13.70
2019-06-15T04:18:50.925Z,16.10
2019-06-15T04:21:16.820Z,16.17
2019-06-15T04:23:42.685Z,14.73
2019-06-15T04:26:08.573Z,13.77
2019-06-15T04:28:34.438Z,14.00
2019-06-15T04:31:00.321Z,18.13
2019-06-15T04:33:26.181Z,16.67
2019-06-15T04:35:52.062Z,17.83
2019-06-15T04:38:17.920Z,25.40
2019-06-15T04:40:43.771Z,21.53
2019-06-15T04:43:09.653Z,21.23
2019-06-15T04:45:35.508Z,25.77
2019-06-15T04:48:01.439Z,23.00
2019-06-15T04:50:27.273Z,22.63
2019-06-15T04:52:53.159Z,25.53
2019-06-15T04:55:19.154Z,24.10
2019-06-15T04:57:45.166Z,22.23
2019-06-15T05:00:11.229Z,20.43
2019-06-15T05:02:38.111Z,24.57
2019-06-15T05:05:05.278Z,23.10
2019-06-15T05:07:31.153Z,21.93
2019-06-15T05:09:57.011Z,22.27
2019-06-15T05:12:22.897Z,23.13
2019-06-15T05:14:48.768Z,24.83
2019-06-15T05:17:14.650Z,23.00
2019-06-15T05:19:40.500Z,22.60
2019-06-15T05:22:06.510Z,23.10
2019-06-15T05:24:32.368Z,20.60
2019-06-15T05:27:06.442Z,21.03
2019-06-15T05:29:26.000Z,23.70
2019-06-15T05:31:51.883Z,23.03
2019-06-15T05:34:17.744Z,22.27
2019-06-15T05:36:43.641Z,22.30
2019-06-15T05:39:09.502Z,23.10
2019-06-15T05:41:35.484Z,22.20
2019-06-15T05:44:01.744Z,21.47
2019-06-15T05:46:27.625Z,20.90
2019-06-15T05:48:53.509Z,20.43
2019-06-15T05:51:19.388Z,19.80
2019-06-15T05:53:45.245Z,21.20
2019-06-15T05:56:11.128Z,20.47
2019-06-15T05:58:37.012Z,19.23
2019-06-15T06:01:03.069Z,20.17
2019-06-15T06:03:28.952Z,18.07
2019-06-15T06:05:54.810Z,18.47
2019-06-15T06:08:20.692Z,19.50
2019-06-15T06:10:46.545Z,21.47
2019-06-15T06:13:12.430Z,20.03
2019-06-15T06:15:38.285Z,20.23
2019-06-15T06:18:04.242Z,21.60
2019-06-15T06:20:30.126Z,23.27
2019-06-15T06:22:55.979Z,22.60
2019-06-15T06:25:21.877Z,27.93
2019-06-15T06:27:47.747Z,26.03
2019-06-15T06:30:14.634Z,24.27
2019-06-15T06:32:40.505Z,27.00
2019-06-15T06:35:07.174Z,26.73
2019-06-15T06:37:33.036Z,25.87
2019-06-15T06:39:58.927Z,24.43
2019-06-15T06:42:24.773Z,26.60
2019-06-15T06:44:50.664Z,23.50
2019-06-15T06:47:16.512Z,26.67
2019-06-15T06:49:42.437Z,24.33
2019-06-15T06:52:08.288Z,23.67
2019-06-15T06:54:34.154Z,24.70
2019-06-15T06:57:00.055Z,24.90
2019-06-15T06:59:26.097Z,23.90
2019-06-15T07:01:51.998Z,20.60
2019-06-15T07:04:17.948Z,24.93
2019-06-15T07:06:43.831Z,23.30
2019-06-15T07:09:09.721Z,22.83
2019-06-15T07:11:35.596Z,25.53
2019-06-15T07:14:01.457Z,19.50
2019-06-15T07:16:27.339Z,15.27
2019-06-15T07:18:53.198Z,14.73
2019-06-15T07:21:19.087Z,14.33
2019-06-15T07:23:44.951Z,15.27
2019-06-15T07:26:10.838Z,15.43
2019-06-15T07:28:36.696Z,15.53
2019-06-15T07:31:02.687Z,14.50
2019-06-15T07:33:28.553Z,14.70
2019-06-15T07:35:54.445Z,14.13
2019-06-15T07:38:20.349Z,13.70
2019-06-15T07:40:46.269Z,13.87
2019-06-15T07:43:12.155Z,14.17
2019-06-15T07:45:38.226Z,13.07
2019-06-15T07:48:04.116Z,13.60
2019-06-15T07:50:29.979Z,14.53
2019-06-15T07:52:56.369Z,14.47
2019-06-15T07:55:22.209Z,15.83
2019-06-15T07:57:48.099Z,17.20
2019-06-15T08:00:14.186Z,15.63
2019-06-15T08:02:40.045Z,16.13
2019-06-15T08:05:06.601Z,14.77
2019-06-15T08:07:32.485Z,14.73
2019-06-15T08:09:58.363Z,15.17
2019-06-15T08:12:24.249Z,11.30
2019-06-15T08:14:50.096Z,10.83
2019-06-15T08:17:16.304Z,9.90
2019-06-15T08:19:42.255Z,10.10
2019-06-15T08:22:08.146Z,10.03
2019-06-15T08:24:34.013Z,10.70
2019-06-15T08:26:59.897Z,10.97
2019-06-15T08:29:25.862Z,10.53
2019-06-15T08:31:51.728Z,10.40
2019-06-15T08:34:17.618Z,8.83
2019-06-15T08:36:43.487Z,8.00
2019-06-15T08:39:09.365Z,8.37
2019-06-15T08:41:35.229Z,8.70
2019-06-15T08:44:01.117Z,6.87
2019-06-15T08:46:26.973Z,7.07
2019-06-15T08:48:52.858Z,6.87
2019-06-15T08:51:18.724Z,6.57
2019-06-15T08:53:44.605Z,8.27
2019-06-15T08:56:10.465Z,8.13
2019-06-15T08:58:36.356Z,7.53
2019-06-15T09:01:02.212Z,8.37
2019-06-15T09:03:28.099Z,14.00
2019-06-15T09:05:53.973Z,8.73
2019-06-15T09:08:19.891Z,6.23
2019-06-15T09:10:45.766Z,6.70
2019-06-15T09:13:11.648Z,6.80
2019-06-15T09:15:51.969Z,6.50
2019-06-15T09:18:18.115Z,8.50
2019-06-15T09:20:44.034Z,7.03
2019-06-15T09:23:10.017Z,7.87
2019-06-15T09:25:36.859Z,8.13
2019-06-15T09:28:02.881Z,7.33
2019-06-15T09:30:28.772Z,7.60
2019-06-15T09:32:54.642Z,7.97
2019-06-15T09:35:20.523Z,8.57
2019-06-15T09:37:46.389Z,8.30
2019-06-15T09:40:12.373Z,10.13
2019-06-15T09:42:38.240Z,9.23
2019-06-15T09:45:05.833Z,8.37
2019-06-15T09:47:31.694Z,9.87
2019-06-15T09:49:57.583Z,10.80
2019-06-15T09:52:23.449Z,14.40
2019-06-15T09:54:49.337Z,11.23
2019-06-15T09:57:15.200Z,11.90
2019-06-15T09:59:41.085Z,14.20
2019-06-15T10:02:06.941Z,10.63
2019-06-15T10:04:33.744Z,12.03
2019-06-15T10:06:59.587Z,10.17
2019-06-15T10:09:25.660Z,8.53
2019-06-15T10:11:51.664Z,7.63
2019-06-15T10:14:17.538Z,7.30
2019-06-15T10:16:43.419Z,7.47
2019-06-15T10:19:09.288Z,8.10
2019-06-15T10:21:35.431Z,8.97
2019-06-15T10:24:01.303Z,8.53
2019-06-15T10:26:27.189Z,8.73
2019-06-15T10:28:53.457Z,7.23
2019-06-15T10:31:19.342Z,7.90
2019-06-15T10:33:45.211Z,7.97
2019-06-15T10:36:11.096Z,7.37
2019-06-15T10:38:36.953Z,7.20
2019-06-15T10:41:02.840Z,7.20
2019-06-15T10:43:28.702Z,7.17
2019-06-15T10:45:54.590Z,8.13
2019-06-15T10:48:20.511Z,7.83
2019-06-15T10:50:46.448Z,8.67
2019-06-15T10:53:12.313Z,8.83
2019-06-15T10:55:38.198Z,9.23
2019-06-15T10:58:04.061Z,8.40
2019-06-15T11:00:30.046Z,8.23
2019-06-15T11:02:55.907Z,8.73
2019-06-15T11:05:21.859Z,7.77
2019-06-15T11:07:47.853Z,7.37
2019-06-15T11:10:14.250Z,6.67
2019-06-15T11:12:46.215Z,7.20
2019-06-15T11:15:08.571Z,8.67
2019-06-15T11:17:34.471Z,6.90
2019-06-15T11:20:00.444Z,7.00
2019-06-15T11:22:26.324Z,6.23
2019-06-15T11:24:52.214Z,6.17
2019-06-15T11:27:18.271Z,6.50
2019-06-15T11:29:44.127Z,6.57
2019-06-15T11:32:10.052Z,6.87
2019-06-15T11:34:35.942Z,8.03
2019-06-15T11:37:01.851Z,7.30
2019-06-15T11:39:27.805Z,8.37
2019-06-15T11:41:53.704Z,8.67
2019-06-15T11:44:19.609Z,7.47
2019-06-15T11:46:45.582Z,7.00
2019-06-15T11:49:11.456Z,6.80
2019-06-15T11:51:37.315Z,6.47
2019-06-15T11:54:03.197Z,7.20
2019-06-15T11:56:29.051Z,6.33
2019-06-15T11:58:54.937Z,7.40
2019-06-15T12:01:20.794Z,7.00
2019-06-15T12:03:46.680Z,8.83
2019-06-15T12:06:12.935Z,7.03
2019-06-15T12:08:38.852Z,6.97
2019-06-15T12:11:04.717Z,7.07
2019-06-15T12:13:30.592Z,7.23
2019-06-15T12:15:56.456Z,7.90
2019-06-15T12:18:22.735Z,7.70
2019-06-15T12:20:48.689Z,7.23
2019-06-15T12:23:14.572Z,7.00
2019-06-15T12:25:40.419Z,8.40
2019-06-15T12:28:06.282Z,8.67
2019-06-15T12:30:46.661Z,8.97
2019-06-15T12:33:06.942Z,8.30
2019-06-15T12:35:33.043Z,8.80
2019-06-15T12:37:58.913Z,8.40
2019-06-15T12:40:24.803Z,7.60
2019-06-15T12:42:50.666Z,8.30
2019-06-15T12:45:16.651Z,10.20
2019-06-15T12:47:42.508Z,9.63
2019-06-15T12:50:08.390Z,10.93
2019-06-15T12:52:34.248Z,10.07
2019-06-15T12:55:00.139Z,12.20
2019-06-15T12:57:26.008Z,11.60
2019-06-15T12:59:51.888Z,19.67
2019-06-15T13:02:17.775Z,13.50
2019-06-15T13:04:43.657Z,10.77
2019-06-15T13:07:09.512Z,13.77
2019-06-15T13:09:35.422Z,16.37
2019-06-15T13:12:01.272Z,20.20
2019-06-15T13:14:27.155Z,18.50
2019-06-15T13:16:53.014Z,14.83
2019-06-15T13:19:18.874Z,16.07
2019-06-15T13:21:44.756Z,16.17
2019-06-15T13:24:10.610Z,17.30
2019-06-15T13:26:36.516Z,14.33
2019-06-15T13:29:02.483Z,21.80
2019-06-15T13:31:28.370Z,13.33
2019-06-15T13:33:54.224Z,17.60
2019-06-15T13:36:20.128Z,16.90
2019-06-15T13:38:45.960Z,18.27
2019-06-15T13:41:11.840Z,15.37
2019-06-15T13:43:37.697Z,20.20
2019-06-15T13:46:03.582Z,19.17
2019-06-15T13:48:29.457Z,17.50
2019-06-15T13:50:55.340Z,16.20
2019-06-15T13:53:21.199Z,20.57
2019-06-15T13:55:47.150Z,20.47
2019-06-15T13:58:13.037Z,20.50
2019-06-15T14:00:38.902Z,19.20
2019-06-15T14:03:04.787Z,23.33
2019-06-15T14:05:30.648Z,15.37
2019-06-15T14:07:56.528Z,21.20
2019-06-15T14:10:22.420Z,21.73
2019-06-15T14:12:48.335Z,23.23
2019-06-15T14:15:15.294Z,16.07
2019-06-15T14:17:41.185Z,22.37
2019-06-15T14:20:07.145Z,16.33
2019-06-15T14:22:33.022Z,22.40
2019-06-15T14:24:58.884Z,23.23
2019-06-15T14:27:24.773Z,26.23
2019-06-15T14:29:50.627Z,23.80
2019-06-15T14:32:16.519Z,20.10
2019-06-15T14:34:42.374Z,19.43
2019-06-15T14:37:08.254Z,21.87
2019-06-15T14:39:34.104Z,22.77
2019-06-15T14:42:00.061Z,21.50
2019-06-15T14:44:26.733Z,20.70
2019-06-15T14:46:52.591Z,18.83
2019-06-15T14:49:18.476Z,19.47
2019-06-15T14:51:44.365Z,22.43
2019-06-15T14:54:10.381Z,20.60
2019-06-15T14:56:36.259Z,19.37
2019-06-15T14:59:02.349Z,19.60
2019-06-15T15:01:28.207Z,19.30
2019-06-15T15:03:54.112Z,18.20
2019-06-15T15:06:20.015Z,16.83
2019-06-15T15:08:47.121Z,18.90
2019-06-15T15:11:13.114Z,16.83
2019-06-15T15:13:39.001Z,16.50
2019-06-15T15:16:07.079Z,18.93
2019-06-15T15:18:32.748Z,19.67
2019-06-15T15:20:58.660Z,17.00
2019-06-15T15:23:24.716Z,18.63
2019-06-15T15:25:50.828Z,21.90
2019-06-15T15:28:16.834Z,17.93
2019-06-15T15:30:42.902Z,16.40
2019-06-15T15:33:08.948Z,19.07
2019-06-15T15:35:37.177Z,63.87
2019-06-15T15:38:03.107Z,15.10
2019-06-15T15:40:29.058Z,13.37
2019-06-15T15:42:56.237Z,13.63
2019-06-15T15:45:22.287Z,13.67
2019-06-15T15:47:48.248Z,13.30
2019-06-15T15:50:17.494Z,14.13
2019-06-15T15:52:42.079Z,12.53
2019-06-15T15:55:08.122Z,10.87
2019-06-15T15:57:36.295Z,11.40
2019-06-15T16:00:07.358Z,10.40
2019-06-15T16:02:47.403Z,10.07
2019-06-15T16:05:01.264Z,12.93
2019-06-15T16:07:28.028Z,7.80
2019-06-15T16:09:54.021Z,8.20
2019-06-15T16:12:19.884Z,8.23
2019-06-15T16:14:45.771Z,5.03
2019-06-15T16:17:11.620Z,5.60
2019-06-15T16:19:37.499Z,8.10
2019-06-15T16:22:03.362Z,5.83
2019-06-15T16:24:29.253Z,5.50
2019-06-15T16:26:56.666Z,6.37
2019-06-15T16:29:22.623Z,4.80
2019-06-15T16:31:48.503Z,4.70
2019-06-15T16:34:16.084Z,5.77
2019-06-15T16:36:42.136Z,6.17
2019-06-15T16:39:08.001Z,5.47
2019-06-15T16:41:36.244Z,5.43
2019-06-15T16:44:01.644Z,4.67
2019-06-15T16:46:27.524Z,4.97
2019-06-15T16:48:55.850Z,4.00
2019-06-15T16:51:21.189Z,4.70
2019-06-15T16:53:47.430Z,4.23
2019-06-15T16:56:13.430Z,3.83
2019-06-15T16:58:39.288Z,3.00
2019-06-15T17:01:06.558Z,4.03
2019-06-15T17:03:32.836Z,2.90
2019-06-15T17:05:58.719Z,3.50
2019-06-15T17:08:24.581Z,2.90
2019-06-15T17:10:50.492Z,3.57
2019-06-15T17:13:16.349Z,2.60
2019-06-15T17:15:42.234Z,2.97
2019-06-15T17:18:08.370Z,2.80
2019-06-15T17:20:48.973Z,2.57
2019-06-15T17:23:16.399Z,3.20
2019-06-15T17:25:42.410Z,3.57
2019-06-15T17:28:08.302Z,4.20
2019-06-15T17:30:36.868Z,3.70
2019-06-15T17:33:04.885Z,3.30
2019-06-15T17:35:29.708Z,4.30
2019-06-15T17:37:56.423Z,3.50
2019-06-15T17:40:22.451Z,2.60
2019-06-15T17:42:48.482Z,4.20
2019-06-15T17:45:16.174Z,3.87
2019-06-15T17:47:42.197Z,2.40
2019-06-15T17:50:08.257Z,4.20
2019-06-15T17:52:35.985Z,2.90
2019-06-15T17:55:07.186Z,3.77
2019-06-15T17:57:35.900Z,3.37
2019-06-15T18:00:01.211Z,3.67
2019-06-15T18:02:27.116Z,4.33
2019-06-15T18:04:53.009Z,4.80
2019-06-15T18:07:18.908Z,4.57
2019-06-15T18:09:46.628Z,4.27
2019-06-15T18:12:12.590Z,4.80
2019-06-15T18:14:38.443Z,3.83
2019-06-15T18:17:07.089Z,4.93
2019-06-15T18:19:33.077Z,4.47
2019-06-15T18:21:59.307Z,5.40
2019-06-15T18:24:26.574Z,5.43
2019-06-15T18:26:52.577Z,5.87
2019-06-15T18:29:18.465Z,5.60
2019-06-15T18:31:44.340Z,6.83
2019-06-15T18:34:13.261Z,5.90
2019-06-15T18:36:37.984Z,7.43
2019-06-15T18:39:05.676Z,8.27
2019-06-15T18:41:31.541Z,7.63
2019-06-15T18:43:57.419Z,7.80
2019-06-15T18:46:23.377Z,5.10
2019-06-15T18:48:49.276Z,5.97
2019-06-15T18:51:16.523Z,7.53
2019-06-15T18:53:42.752Z,5.63
2019-06-15T18:56:08.612Z,5.27
2019-06-15T18:58:36.995Z,5.27
2019-06-15T19:01:02.275Z,5.27
2019-06-15T19:03:28.159Z,6.13
2019-06-15T19:05:56.690Z,8.80
2019-06-15T19:08:21.807Z,8.03
2019-06-15T19:10:47.691Z,12.07
2019-06-15T19:13:16.087Z,29.40
2019-06-15T19:15:41.342Z,30.10
2019-06-15T19:18:07.771Z,35.23
2019-06-15T19:20:33.688Z,39.03
2019-06-15T19:22:59.549Z,28.63
2019-06-15T19:25:27.032Z,24.83
2019-06-15T19:27:52.985Z,25.70
2019-06-15T19:30:19.081Z,21.53
2019-06-15T19:32:46.350Z,18.57
2019-06-15T19:35:12.351Z,15.90
2019-06-15T19:37:38.222Z,14.87
2019-06-15T19:40:07.319Z,18.53
2019-06-15T19:42:36.508Z,14.20
2019-06-15T19:45:10.125Z,14.93
2019-06-15T19:47:34.288Z,12.47
2019-06-15T19:50:00.175Z,13.47
2019-06-15T19:52:26.395Z,16.43
2019-06-15T19:54:52.251Z,12.43
2019-06-15T19:57:18.137Z,9.87
2019-06-15T19:59:44.003Z,11.77
2019-06-15T20:02:10.870Z,7.20
2019-06-15T20:04:36.864Z,7.13
2019-06-15T20:07:02.856Z,6.03
2019-06-15T20:09:28.741Z,5.57
2019-06-15T20:11:56.032Z,5.20
2019-06-15T20:14:22.111Z,7.13
2019-06-15T20:16:47.991Z,6.10
2019-06-15T20:19:13.856Z,6.63
2019-06-15T20:21:39.741Z,4.57
2019-06-15T20:24:06.245Z,8.27
2019-06-15T20:26:32.298Z,5.43
2019-06-15T20:28:58.159Z,6.20
2019-06-15T20:31:24.044Z,7.53
2019-06-15T20:33:52.244Z,5.77
2019-06-15T20:36:17.705Z,4.80
2019-06-15T20:38:43.569Z,4.27
2019-06-15T20:41:09.458Z,6.33
2019-06-15T20:43:36.590Z,3.57
2019-06-15T20:46:02.811Z,6.57
2019-06-15T20:48:28.773Z,5.50
2019-06-15T20:50:56.762Z,4.37
2019-06-15T20:53:22.425Z,4.90
2019-06-15T20:55:48.279Z,5.80
2019-06-15T20:58:16.709Z,6.40
2019-06-15T21:00:41.924Z,3.87
2019-06-15T21:03:07.894Z,6.13
2019-06-15T21:05:38.935Z,3.50
2019-06-15T21:08:01.644Z,5.90
2019-06-15T21:10:27.530Z,5.07
2019-06-15T21:12:53.433Z,4.83
2019-06-15T21:15:23.084Z,4.70
2019-06-15T21:17:48.969Z,6.87
2019-06-15T21:20:16.237Z,5.30
2019-06-15T21:22:42.219Z,5.13
2019-06-15T21:25:08.578Z,5.53
2019-06-15T21:27:36.686Z,5.63
2019-06-15T21:30:07.096Z,6.67
2019-06-15T21:32:33.007Z,4.67
2019-06-15T21:34:58.849Z,5.43
2019-06-15T21:37:26.024Z,6.87
2019-06-15T21:39:51.885Z,4.57
2019-06-15T21:42:17.775Z,3.57
2019-06-15T21:44:43.631Z,4.80
2019-06-15T21:47:09.524Z,5.87
2019-06-15T21:49:35.836Z,4.13
2019-06-15T21:52:01.765Z,5.80
2019-06-15T21:54:27.662Z,7.77
2019-06-15T21:56:56.284Z,5.33
2019-06-15T21:59:21.299Z,3.67
2019-06-15T22:01:47.175Z,3.80
2019-06-15T22:04:13.053Z,3.93
2019-06-15T22:06:38.925Z,5.10
2019-06-15T22:09:07.544Z,4.53
2019-06-15T22:11:33.406Z,4.27
2019-06-15T22:13:59.291Z,3.37
2019-06-15T22:16:27.450Z,4.40
2019-06-15T22:18:52.945Z,4.27
2019-06-15T22:21:18.802Z,5.00
2019-06-15T22:23:47.058Z,4.43
2019-06-15T22:26:12.550Z,6.47
2019-06-15T22:28:38.437Z,4.90
2019-06-15T22:31:06.568Z,4.13
2019-06-15T22:33:32.060Z,4.93
2019-06-15T22:35:57.940Z,4.57
2019-06-15T22:38:23.823Z,5.43
2019-06-15T22:40:49.721Z,3.30
2019-06-15T22:43:16.697Z,4.20
2019-06-15T22:45:42.867Z,4.47
2019-06-15T22:48:08.727Z,3.97
2019-06-15T22:50:36.105Z,4.90
2019-06-15T22:53:04.066Z,3.93
2019-06-15T22:55:29.853Z,3.73
2019-06-15T22:57:56.678Z,4.30
2019-06-15T23:00:22.609Z,4.10
2019-06-15T23:02:48.474Z,5.87
2019-06-15T23:05:16.940Z,4.17
2019-06-15T23:07:42.212Z,4.70
2019-06-15T23:10:08.339Z,6.57
2019-06-15T23:12:36.955Z,5.00
2019-06-15T23:15:06.868Z,3.93
2019-06-15T23:17:32.332Z,4.23
2019-06-15T23:19:58.215Z,5.23
2019-06-15T23:22:24.073Z,5.33
2019-06-15T23:24:49.952Z,4.93
2019-06-15T23:27:16.562Z,5.17
2019-06-15T23:29:42.465Z,4.87
2019-06-15T23:32:08.353Z,4.00
2019-06-15T23:34:34.224Z,4.13
2019-06-15T23:37:02.011Z,3.90
2019-06-15T23:39:27.870Z,4.23
2019-06-15T23:41:56.235Z,6.00
2019-06-15T23:44:21.525Z,5.37
2019-06-15T23:46:47.394Z,5.23
2019-06-15T23:49:13.285Z,4.50
2019-06-15T23:51:39.152Z,5.13
2019-06-15T23:54:05.014Z,4.27
2019-06-15T23:56:30.901Z,4.03
2019-06-15T23:58:56.770Z,4.57
